createdAt,value
2018-09-22T00:02:50.442Z,16.40
2018-09-22T00:07:43.823Z,16.21
2018-09-22T00:12:37.386Z,16.20
2018-09-22T00:17:31.187Z,16.37
2018-09-22T00:22:24.527Z,16.24
2018-09-22T00:27:18.239Z,16.19
2018-09-22T00:32:11.595Z,16.26
2018-09-22T00:37:05.145Z,16.24
2018-09-22T00:41:59.317Z,16.31
2018-09-22T00:46:53.241Z,16.31
2018-09-22T00:51:46.468Z,16.24
2018-09-22T00:56:39.665Z,16.04
2018-09-22T01:01:33.983Z,16.10
2018-09-22T01:06:27.887Z,16.18
2018-09-22T01:11:21.096Z,16.30
2018-09-22T01:16:15.453Z,16.35
2018-09-22T01:21:08.769Z,16.19
2018-09-22T01:26:02.078Z,16.22
2018-09-22T01:30:55.996Z,16.25
2018-09-22T01:35:49.305Z,16.10
2018-09-22T01:40:42.577Z,16.05
2018-09-22T01:45:38.496Z,16.03
2018-09-22T01:50:31.785Z,15.98
2018-09-22T01:55:26.053Z,15.95
2018-09-22T02:00:19.453Z,15.94
2018-09-22T02:05:13.550Z,15.74
2018-09-22T02:10:06.972Z,15.66
2018-09-22T02:15:00.761Z,15.86
2018-09-22T02:19:54.007Z,15.90
2018-09-22T02:24:47.350Z,16.05
2018-09-22T02:29:40.593Z,15.96
2018-09-22T02:34:33.854Z,15.87
2018-09-22T02:39:27.401Z,15.84
2018-09-22T02:44:20.872Z,15.72
2018-09-22T02:49:14.182Z,15.64
2018-09-22T02:54:08.002Z,15.56
2018-09-22T02:59:01.327Z,15.56
2018-09-22T03:03:55.078Z,15.51
2018-09-22T03:08:48.384Z,15.42
2018-09-22T03:13:42.078Z,15.27
2018-09-22T03:18:36.251Z,15.21
2018-09-22T03:23:29.747Z,15.29
2018-09-22T03:28:23.020Z,15.21
2018-09-22T03:33:17.075Z,15.19
2018-09-22T03:38:10.433Z,15.33
2018-09-22T03:43:04.230Z,15.15
2018-09-22T03:47:57.493Z,15.37
2018-09-22T03:52:51.117Z,15.44
2018-09-22T03:57:44.436Z,15.36
2018-09-22T04:02:37.625Z,15.50
2018-09-22T04:07:30.897Z,15.44
2018-09-22T04:12:24.166Z,15.41
2018-09-22T04:17:17.383Z,15.42
2018-09-22T04:22:10.480Z,15.43
2018-09-22T04:27:04.743Z,15.33
2018-09-22T04:31:57.908Z,15.26
2018-09-22T04:36:51.533Z,15.25
2018-09-22T04:41:46.411Z,15.09
2018-09-22T04:46:39.678Z,15.15
2018-09-22T04:51:32.822Z,15.31
2018-09-22T04:56:26.041Z,15.32
2018-09-22T05:01:19.780Z,15.46
2018-09-22T05:06:12.941Z,15.61
2018-09-22T05:11:06.434Z,15.78
2018-09-22T05:15:59.746Z,15.86
2018-09-22T05:20:54.858Z,15.99
2018-09-22T05:25:48.649Z,16.04
2018-09-22T05:30:41.855Z,16.28
2018-09-22T05:35:34.986Z,16.37
2018-09-22T05:40:28.882Z,16.47
2018-09-22T05:45:22.199Z,16.56
2018-09-22T05:50:15.429Z,16.63
2018-09-22T05:55:08.786Z,16.84
2018-09-22T06:00:02.062Z,17.05
2018-09-22T06:04:58.338Z,17.22
2018-09-22T06:09:51.597Z,17.43
2018-09-22T06:14:44.818Z,17.59
2018-09-22T06:19:38.251Z,17.79
2018-09-22T06:24:31.811Z,17.95
2018-09-22T06:29:25.150Z,18.19
2018-09-22T06:34:18.402Z,18.34
2018-09-22T06:39:12.398Z,18.59
2018-09-22T06:44:05.781Z,18.84
2018-09-22T06:48:59.025Z,19.08
2018-09-22T06:53:52.273Z,19.26
2018-09-22T06:58:45.584Z,19.39
2018-09-22T07:03:38.970Z,19.55
2018-09-22T07:08:33.130Z,19.60
2018-09-22T07:13:26.386Z,19.70
2018-09-22T07:18:20.381Z,19.88
2018-09-22T07:23:15.876Z,20.01
2018-09-22T07:28:10.192Z,20.04
2018-09-22T07:33:03.500Z,20.15
2018-09-22T07:37:56.678Z,20.24
2018-09-22T07:42:50.792Z,20.29
2018-09-22T07:47:44.072Z,20.42
2018-09-22T07:52:38.085Z,20.50
2018-09-22T07:57:39.690Z,20.62
2018-09-22T08:02:33.492Z,20.83
2018-09-22T08:07:31.378Z,21.14
2018-09-22T08:12:25.799Z,21.00
2018-09-22T08:17:19.398Z,21.11
2018-09-22T08:22:14.632Z,21.22
2018-09-22T08:27:08.553Z,21.42
2018-09-22T08:32:01.931Z,21.49
2018-09-22T08:36:55.655Z,21.62
2018-09-22T08:41:48.750Z,21.80
2018-09-22T08:46:41.830Z,22.01
2018-09-22T08:51:35.355Z,22.15
2018-09-22T08:56:28.713Z,22.27
2018-09-22T09:01:22.205Z,22.33
2018-09-22T09:06:15.547Z,22.54
2018-09-22T09:11:10.053Z,22.70
2018-09-22T09:16:11.960Z,22.93
2018-09-22T09:21:05.660Z,22.92
2018-09-22T09:25:59.345Z,23.09
2018-09-22T09:30:52.840Z,23.17
2018-09-22T09:35:47.021Z,23.30
2018-09-22T09:40:40.239Z,23.35
2018-09-22T09:45:34.336Z,23.57
2018-09-22T09:50:27.583Z,23.73
2018-09-22T09:55:20.817Z,23.89
2018-09-22T10:00:17.064Z,24.04
2018-09-22T10:05:10.378Z,24.10
2018-09-22T10:10:03.752Z,24.04
2018-09-22T10:14:57.341Z,24.14
2018-09-22T10:19:50.853Z,24.35
2018-09-22T10:24:44.410Z,24.47
2018-09-22T10:29:37.616Z,24.59
2018-09-22T10:34:31.085Z,24.73
2018-09-22T10:39:28.133Z,24.90
2018-09-22T10:44:21.511Z,24.92
2018-09-22T10:49:15.291Z,24.84
2018-09-22T10:54:08.513Z,24.78
2018-09-22T10:59:02.196Z,25.10
2018-09-22T11:03:55.477Z,25.28
2018-09-22T11:08:48.640Z,25.29
2018-09-22T11:13:41.904Z,25.34
2018-09-22T11:18:35.507Z,25.49
2018-09-22T11:23:29.202Z,25.68
2018-09-22T11:28:25.347Z,25.49
2018-09-22T11:33:19.860Z,25.52
2018-09-22T11:38:13.623Z,25.61
2018-09-22T11:43:07.081Z,25.74
2018-09-22T11:48:05.452Z,25.70
2018-09-22T11:52:59.274Z,25.71
2018-09-22T12:02:55.808Z,25.83
2018-09-22T12:07:49.226Z,25.79
2018-09-22T12:12:42.916Z,25.99
2018-09-22T12:17:36.049Z,26.02
2018-09-22T12:22:30.337Z,26.16
2018-09-22T12:27:23.800Z,26.43
2018-09-22T12:32:17.541Z,26.30
2018-09-22T12:37:10.935Z,26.30
2018-09-22T12:42:04.711Z,26.40
2018-09-22T12:46:57.881Z,26.32
2018-09-22T12:51:52.449Z,26.37
2018-09-22T12:56:45.888Z,26.50
2018-09-22T13:01:39.287Z,26.59
2018-09-22T13:06:32.814Z,26.54
2018-09-22T13:11:26.114Z,26.60
2018-09-22T13:16:19.398Z,26.66
2018-09-22T13:21:13.461Z,26.70
2018-09-22T13:26:07.898Z,26.67
2018-09-22T13:31:01.170Z,26.63
2018-09-22T13:35:54.632Z,26.64
2018-09-22T13:40:49.217Z,26.59
2018-09-22T13:45:42.476Z,26.82
2018-09-22T13:50:37.276Z,26.70
2018-09-22T13:55:30.528Z,26.85
2018-09-22T14:00:23.709Z,26.72
2018-09-22T14:05:18.108Z,26.76
2018-09-22T14:10:11.466Z,26.88
2018-09-22T14:15:04.974Z,26.88
2018-09-22T14:19:59.515Z,26.73
2018-09-22T14:24:52.937Z,26.62
2018-09-22T14:29:46.262Z,26.56
2018-09-22T14:34:39.486Z,26.56
2018-09-22T14:39:32.807Z,26.60
2018-09-22T14:44:26.377Z,26.63
2018-09-22T14:49:20.675Z,26.70
2018-09-22T14:54:14.269Z,26.62
2018-09-22T14:59:07.570Z,26.51
2018-09-22T15:04:01.239Z,26.54
2018-09-22T15:08:54.902Z,26.38
2018-09-22T15:13:48.122Z,26.34
2018-09-22T15:18:41.612Z,26.16
2018-09-22T15:23:42.468Z,26.01
2018-09-22T15:28:35.998Z,25.76
2018-09-22T15:33:29.387Z,25.63
2018-09-22T15:38:22.609Z,25.44
2018-09-22T15:43:16.133Z,25.25
2018-09-22T15:48:09.414Z,25.06
2018-09-22T15:53:03.362Z,24.85
2018-09-22T15:57:57.101Z,24.63
2018-09-22T16:02:52.105Z,24.33
2018-09-22T16:07:45.276Z,24.14
2018-09-22T16:12:38.452Z,23.65
2018-09-22T16:17:32.857Z,23.36
2018-09-22T16:22:26.793Z,23.11
2018-09-22T16:27:20.431Z,22.87
2018-09-22T16:32:13.990Z,22.61
2018-09-22T16:37:11.654Z,22.44
2018-09-22T16:42:05.597Z,22.15
2018-09-22T16:46:58.864Z,22.17
2018-09-22T16:51:53.265Z,22.32
2018-09-22T16:56:48.098Z,22.29
2018-09-22T17:01:41.377Z,22.16
2018-09-22T17:06:34.818Z,22.04
2018-09-22T17:11:28.563Z,22.04
2018-09-22T17:16:24.241Z,21.85
2018-09-22T17:21:19.567Z,21.88
2018-09-22T17:26:15.271Z,21.87
2018-09-22T17:31:08.445Z,21.75
2018-09-22T17:36:02.338Z,21.79
2018-09-22T17:40:56.226Z,21.75
2018-09-22T17:45:49.529Z,21.80
2018-09-22T17:50:43.409Z,21.55
2018-09-22T17:55:38.892Z,21.40
2018-09-22T18:00:32.607Z,21.52
2018-09-22T18:05:27.025Z,21.47
2018-09-22T18:10:20.291Z,21.22
2018-09-22T18:15:13.623Z,20.87
2018-09-22T18:20:06.947Z,20.75
2018-09-22T18:25:02.286Z,20.62
2018-09-22T18:29:55.638Z,20.63
2018-09-22T18:34:49.202Z,20.49
2018-09-22T18:39:45.298Z,20.46
2018-09-22T18:44:39.075Z,20.53
2018-09-22T18:49:32.496Z,20.45
2018-09-22T18:54:25.898Z,20.32
2018-09-22T18:59:19.176Z,20.27
2018-09-22T19:04:12.707Z,19.95
2018-09-22T19:09:07.804Z,19.85
2018-09-22T19:14:06.492Z,19.80
2018-09-22T19:19:09.088Z,19.62
2018-09-22T19:24:05.706Z,19.59
2018-09-22T19:29:14.565Z,19.43
2018-09-22T19:34:11.270Z,19.21
2018-09-22T19:39:16.878Z,19.14
2018-09-22T19:44:14.481Z,19.32
2018-09-22T19:49:15.521Z,19.24
2018-09-22T19:54:09.712Z,19.18
2018-09-22T19:59:03.010Z,19.12
2018-09-22T20:03:56.255Z,19.08
2018-09-22T20:08:49.663Z,18.94
2018-09-22T20:13:43.482Z,18.96
2018-09-22T20:18:36.905Z,18.91
2018-09-22T20:23:31.857Z,18.84
2018-09-22T20:28:27.973Z,18.79
2018-09-22T20:33:22.503Z,18.61
2018-09-22T20:38:18.663Z,18.52
2018-09-22T20:43:12.823Z,18.57
2018-09-22T20:48:06.709Z,18.51
2018-09-22T20:53:00.245Z,18.54
2018-09-22T20:57:53.775Z,18.52
2018-09-22T21:02:51.041Z,18.58
2018-09-22T21:07:45.818Z,18.49
2018-09-22T21:12:40.300Z,18.39
2018-09-22T21:17:33.630Z,18.57
2018-09-22T21:22:27.547Z,18.46
2018-09-22T21:27:24.401Z,18.32
2018-09-22T21:32:17.717Z,18.22
2018-09-22T21:37:13.004Z,18.43
2018-09-22T21:42:06.126Z,18.23
2018-09-22T21:47:00.349Z,17.93
2018-09-22T21:51:53.762Z,18.19
2018-09-22T21:56:46.950Z,18.47
2018-09-22T22:01:41.888Z,18.77
2018-09-22T22:06:35.535Z,18.36
2018-09-22T22:11:29.164Z,18.37
2018-09-22T22:16:24.400Z,18.51
2018-09-22T22:21:17.817Z,18.17
2018-09-22T22:26:12.216Z,18.16
2018-09-22T22:31:06.031Z,18.10
2018-09-22T22:35:59.252Z,17.91
2018-09-22T22:40:54.132Z,17.71
2018-09-22T22:45:48.072Z,17.62
2018-09-22T22:50:41.329Z,17.56
2018-09-22T22:55:35.219Z,17.65
2018-09-22T23:00:28.479Z,17.54
2018-09-22T23:05:21.961Z,17.64
2018-09-22T23:10:16.261Z,17.46
2018-09-22T23:15:09.627Z,17.36
2018-09-22T23:20:04.134Z,17.42
2018-09-22T23:25:00.999Z,17.48
2018-09-22T23:29:56.061Z,17.48
2018-09-22T23:34:49.510Z,17.37
2018-09-22T23:39:42.791Z,17.35
2018-09-22T23:44:36.158Z,17.35
2018-09-22T23:49:29.972Z,17.43
2018-09-22T23:54:24.756Z,17.51
2018-09-22T23:59:19.569Z,17.32
